Time;durP1;ratioP1;P1;durP2;ratioP2;P2;SDS_P1;SDS_P2;PMS_P1;PMS_P2;Temp;Humidity;BMP_temperature;BMP_pressure;BME280_temperature;BME280_humidity;BME280_pressure;Samples;Min_cycle;Max_cycle;Signal;HPM_P1;HPM_P2
2022/11/23 00:01:31;;;;;;;36.53;26.67;;;7.80;93.80;;;;;;4992407;28;20395;-72
2022/11/23 00:04:00;;;;;;;33.30;25.75;;;7.80;93.80;;;;;;4992069;28;20469;-72
2022/11/23 00:06:26;;;;;;;31.80;24.63;;;7.80;93.80;;;;;;4991922;28;20421;-72
2022/11/23 00:08:52;;;;;;;28.90;23.77;;;7.90;93.90;;;;;;4991750;28;20886;-72
2022/11/23 00:11:20;;;;;;;31.50;25.63;;;7.90;93.80;;;;;;4991759;28;20402;-72
2022/11/23 00:13:46;;;;;;;32.47;24.90;;;7.90;93.80;;;;;;4991796;28;20875;-72
2022/11/23 00:16:14;;;;;;;30.35;23.85;;;7.90;93.80;;;;;;4991856;28;20841;-72
2022/11/23 00:18:40;;;;;;;26.75;22.20;;;8.00;93.80;;;;;;4975269;28;20919;-72
2022/11/23 00:21:07;;;;;;;28.90;22.77;;;8.00;93.80;;;;;;4991423;28;20407;-72
2022/11/23 00:23:33;;;;;;;28.17;22.92;;;8.00;93.70;;;;;;4991540;28;20407;-72
2022/11/23 00:25:59;;;;;;;27.33;22.20;;;8.00;93.70;;;;;;4991475;28;20485;-72
2022/11/23 00:28:24;;;;;;;25.93;21.33;;;8.00;93.70;;;;;;4975249;28;20485;-73
2022/11/23 00:30:50;;;;;;;26.83;21.93;;;8.10;93.70;;;;;;4991514;28;20489;-72
2022/11/23 00:33:16;;;;;;;26.73;21.25;;;8.10;93.70;;;;;;4991196;28;20442;-73
2022/11/23 00:35:42;;;;;;;30.42;22.95;;;8.10;93.60;;;;;;4991418;28;20410;-72
2022/11/23 00:38:07;;;;;;;26.15;21.25;;;8.10;93.70;;;;;;4991318;28;20899;-72
2022/11/23 00:40:33;;;;;;;27.47;21.97;;;8.10;93.60;;;;;;4991590;28;20485;-73
2022/11/23 00:42:58;;;;;;;30.38;23.02;;;8.10;93.60;;;;;;4991554;28;20536;-72
2022/11/23 00:45:24;;;;;;;28.70;20.73;;;8.10;94.00;;;;;;4991557;28;20482;-72
2022/11/23 00:47:49;;;;;;;30.48;23.02;;;8.10;93.60;;;;;;4991229;28;20460;-73
2022/11/23 00:50:15;;;;;;;27.57;21.27;;;8.10;93.60;;;;;;4991325;28;20913;-72
2022/11/23 00:52:41;;;;;;;26.55;20.88;;;8.10;93.60;;;;;;4991294;28;20493;-72
2022/11/23 00:55:07;;;;;;;27.40;20.63;;;8.20;93.60;;;;;;4991154;28;20505;-72
2022/11/23 00:57:33;;;;;;;25.77;20.23;;;8.20;93.60;;;;;;4991408;28;20485;-72
2022/11/23 00:59:59;;;;;;;24.98;19.95;;;8.20;93.60;;;;;;4991196;28;20985;-72
2022/11/23 01:02:25;;;;;;;30.35;21.38;;;8.20;93.60;;;;;;4991172;28;20394;-72
2022/11/23 01:04:50;;;;;;;23.13;19.58;;;8.20;93.60;;;;;;4991127;28;20850;-72
2022/11/23 01:07:16;;;;;;;24.37;20.27;;;8.20;93.60;;;;;;4991081;28;20398;-72
2022/11/23 01:09:42;;;;;;;23.42;19.95;;;8.20;93.50;;;;;;4974935;28;20406;-72
2022/11/23 01:12:07;;;;;;;23.13;18.60;;;8.20;93.50;;;;;;4991129;28;20407;-72
2022/11/23 01:14:33;;;;;;;24.03;19.13;;;8.20;93.50;;;;;;4991074;28;20426;-72
2022/11/23 01:16:58;;;;;;;21.42;18.92;;;8.20;93.40;;;;;;4990974;28;20398;-72
2022/11/23 01:19:24;;;;;;;21.73;18.20;;;8.20;93.30;;;;;;4974887;28;20927;-72
2022/11/23 01:21:50;;;;;;;25.95;18.73;;;8.30;93.40;;;;;;4991009;28;20969;-72
2022/11/23 01:24:19;;;;;;;22.43;17.43;;;8.30;93.40;;;;;;4990986;28;20517;-72
2022/11/23 01:26:44;;;;;;;22.73;18.25;;;8.30;93.30;;;;;;4990908;28;20417;-72
2022/11/23 01:29:11;;;;;;;22.40;18.27;;;8.30;93.30;;;;;;4990963;28;20406;-73
2022/11/23 01:31:37;;;;;;;23.27;17.92;;;8.30;93.30;;;;;;4991489;28;20410;-73
2022/11/23 01:34:03;;;;;;;18.13;16.10;;;8.30;93.30;;;;;;4994607;28;20422;-73
2022/11/23 01:36:31;;;;;;;20.90;17.27;;;8.30;93.20;;;;;;4994775;28;20402;-73
2022/11/23 01:38:57;;;;;;;20.48;17.50;;;8.30;93.10;;;;;;4994844;28;20969;-72
2022/11/23 01:41:26;;;;;;;22.65;18.67;;;8.40;93.10;;;;;;4994512;28;20398;-72
2022/11/23 01:43:53;;;;;;;24.13;18.17;;;8.40;93.20;;;;;;4994444;28;20410;-72
2022/11/23 01:46:19;;;;;;;20.23;16.92;;;8.40;93.20;;;;;;4994535;28;20410;-72
2022/11/23 01:48:59;;;;;;;21.73;17.77;;;8.40;93.10;;;;;;4994387;28;20434;-72
2022/11/23 01:51:29;;;;;;;21.27;16.88;;;8.40;93.10;;;;;;4994400;28;20402;-72
2022/11/23 01:54:00;;;;;;;21.10;16.65;;;8.40;93.10;;;;;;4994190;28;20434;-72
2022/11/23 01:56:31;;;;;;;21.85;17.90;;;8.40;93.10;;;;;;4994219;28;20969;-73
2022/11/23 01:58:59;;;;;;;23.77;19.00;;;8.50;93.10;;;;;;4994473;28;20403;-72
2022/11/23 02:01:25;;;;;;;21.65;18.35;;;8.40;93.20;;;;;;4994449;28;20465;-73
2022/11/23 02:03:52;;;;;;;24.40;19.30;;;8.40;93.30;;;;;;4994140;28;20406;-72
2022/11/23 02:06:19;;;;;;;25.87;20.67;;;8.40;93.40;;;;;;4994251;28;20750;-72
2022/11/23 02:08:46;;;;;;;25.92;19.52;;;8.30;93.50;;;;;;4994003;28;20457;-72
2022/11/23 02:11:13;;;;;;;27.73;20.60;;;8.30;93.50;;;;;;4993893;28;20472;-72
2022/11/23 02:13:41;;;;;;;29.20;20.75;;;8.30;93.60;;;;;;4993825;28;20537;-72
2022/11/23 02:16:07;;;;;;;29.03;20.10;;;8.30;93.70;;;;;;4993899;28;20402;-72
2022/11/23 02:18:36;;;;;;;27.10;19.47;;;8.20;93.70;;;;;;4994081;28;20879;-73
2022/11/23 02:21:03;;;;;;;26.50;20.50;;;8.20;93.80;;;;;;4993747;28;20414;-72
2022/11/23 02:24:02;;;;;;;29.33;22.10;;;8.30;94.10;;;;;;4993911;28;20406;-72
2022/11/23 02:26:30;;;;;;;28.92;21.08;;;8.30;93.80;;;;;;4993572;28;20445;-72
2022/11/23 02:29:13;;;;;;;25.40;20.15;;;8.30;93.80;;;;;;4993611;28;20406;-72
2022/11/23 02:31:39;;;;;;;29.30;21.65;;;8.30;93.80;;;;;;4993441;28;20406;-72
2022/11/23 02:34:04;;;;;;;34.20;22.67;;;8.30;93.80;;;;;;4977341;28;21001;-72
2022/11/23 02:36:47;;;;;;;28.98;21.85;;;8.40;93.80;;;;;;4993395;28;20922;-72
2022/11/23 02:39:26;;;;;;;27.00;20.93;;;8.40;93.80;;;;;;4993430;28;20910;-72
2022/11/23 02:41:52;;;;;;;28.13;20.50;;;8.40;94.00;;;;;;4993601;28;20410;-72
2022/11/23 02:44:36;;;;;;;28.70;21.55;;;8.40;93.80;;;;;;4993943;28;20823;-72
2022/11/23 02:47:02;;;;;;;28.30;21.90;;;8.40;93.80;;;;;;4993251;28;20504;-72
2022/11/23 02:49:28;;;;;;;29.45;21.77;;;8.40;93.80;;;;;;4993223;28;20445;-72
2022/11/23 02:51:54;;;;;;;28.07;20.90;;;8.40;93.80;;;;;;4976975;28;20434;-72
2022/11/23 02:54:19;;;;;;;27.13;21.05;;;8.40;93.80;;;;;;4976825;28;20422;-72
2022/11/23 02:56:45;;;;;;;24.88;19.98;;;8.40;93.80;;;;;;4993279;28;20465;-73
2022/11/23 02:59:10;;;;;;;27.40;21.40;;;8.40;93.80;;;;;;4993062;28;20489;-72
2022/11/23 03:01:38;;;;;;;31.33;21.75;;;8.40;93.80;;;;;;4993224;28;20407;-72
2022/11/23 03:04:04;;;;;;;30.13;22.17;;;8.40;93.80;;;;;;4992909;28;20414;-72
2022/11/23 03:06:30;;;;;;;31.25;21.48;;;8.40;93.80;;;;;;4993088;28;20398;-72
2022/11/23 03:08:55;;;;;;;28.00;21.10;;;8.40;93.80;;;;;;4993104;28;20472;-72
2022/11/23 03:11:21;;;;;;;25.92;20.17;;;8.40;93.70;;;;;;4992834;28;20410;-73
2022/11/23 03:13:47;;;;;;;28.83;21.00;;;8.50;93.70;;;;;;4992663;28;20939;-72
2022/11/23 03:16:12;;;;;;;28.47;21.17;;;8.50;93.80;;;;;;4976733;28;20476;-72
2022/11/23 03:18:38;;;;;;;26.20;20.00;;;8.60;93.80;;;;;;4992931;28;20414;-72
2022/11/23 03:21:07;;;;;;;28.30;21.10;;;8.40;93.70;;;;;;4992952;28;20438;-73
2022/11/23 03:23:33;;;;;;;29.60;21.80;;;8.50;93.70;;;;;;4992572;28;20811;-72
2022/11/23 03:25:59;;;;;;;31.33;22.67;;;8.50;93.70;;;;;;4992498;28;20410;-72
2022/11/23 03:28:25;;;;;;;35.27;23.43;;;8.50;93.80;;;;;;4992433;28;20933;-72
2022/11/23 03:30:50;;;;;;;38.40;24.98;;;8.50;93.90;;;;;;4992479;28;20774;-72
2022/11/23 03:33:16;;;;;;;36.83;23.73;;;8.40;94.00;;;;;;4992200;28;20532;-72
2022/11/23 03:35:42;;;;;;;39.90;25.07;;;8.40;94.00;;;;;;4992427;28;20406;-72
2022/11/23 03:38:07;;;;;;;37.57;24.63;;;8.40;94.00;;;;;;4992581;28;20398;-72
2022/11/23 03:40:33;;;;;;;37.88;24.55;;;8.40;94.00;;;;;;4992531;28;20406;-72
2022/11/23 03:42:59;;;;;;;40.60;24.57;;;8.40;94.00;;;;;;4976160;28;20399;-73
2022/11/23 03:45:24;;;;;;;44.03;25.48;;;8.40;94.10;;;;;;4992470;28;20446;-73
2022/11/23 03:47:50;;;;;;;37.03;24.27;;;8.40;94.10;;;;;;4992140;28;20407;-73
2022/11/23 03:50:15;;;;;;;40.47;25.42;;;8.30;94.10;;;;;;4992383;28;20417;-73
2022/11/23 03:52:41;;;;;;;39.92;24.77;;;8.30;94.10;;;;;;4992033;28;20403;-73
2022/11/23 03:55:07;;;;;;;39.33;25.03;;;8.30;94.20;;;;;;4975078;28;20448;-73
2022/11/23 03:57:32;;;;;;;42.70;25.63;;;8.30;94.20;;;;;;4991926;28;20500;-73
2022/11/23 03:59:58;;;;;;;39.03;25.80;;;8.30;94.20;;;;;;4991905;28;20910;-73
2022/11/23 04:02:23;;;;;;;42.60;26.20;;;8.30;94.20;;;;;;4975665;28;20402;-73
2022/11/23 04:04:49;;;;;;;45.13;26.75;;;8.30;94.30;;;;;;4991894;28;20409;-73
2022/11/23 04:07:14;;;;;;;40.20;27.00;;;8.30;94.30;;;;;;4991685;28;20486;-73
2022/11/23 04:09:40;;;;;;;44.15;28.15;;;8.30;94.30;;;;;;4975556;28;20473;-73
2022/11/23 04:12:07;;;;;;;42.00;26.53;;;8.30;94.20;;;;;;4991925;28;20422;-73
2022/11/23 04:14:33;;;;;;;49.92;28.83;;;8.30;94.20;;;;;;4975378;28;20422;-73
2022/11/23 04:16:58;;;;;;;46.58;28.23;;;8.30;94.20;;;;;;4991802;28;20398;-73
2022/11/23 04:19:23;;;;;;;46.03;28.93;;;8.30;94.20;;;;;;4991579;28;20402;-73
2022/11/23 04:21:49;;;;;;;44.47;27.83;;;8.30;94.30;;;;;;4991790;28;20755;-73
2022/11/23 04:24:14;;;;;;;53.67;29.90;;;8.30;94.30;;;;;;4991490;28;20610;-73
2022/11/23 04:26:40;;;;;;;46.10;28.50;;;8.30;94.20;;;;;;4991659;28;20413;-73
2022/11/23 04:29:06;;;;;;;47.90;28.37;;;8.30;94.20;;;;;;4992281;28;20418;-73
2022/11/23 04:31:31;;;;;;;49.15;29.63;;;8.30;94.20;;;;;;4991497;28;20910;-73
2022/11/23 04:33:57;;;;;;;55.67;30.50;;;8.40;94.20;;;;;;4975305;28;20418;-73
2022/11/23 04:36:23;;;;;;;47.35;29.80;;;8.30;94.10;;;;;;4991286;28;20399;-73
2022/11/23 04:38:48;;;;;;;47.15;29.20;;;8.30;94.10;;;;;;4991580;28;20397;-73
2022/11/23 04:41:14;;;;;;;52.33;30.35;;;8.30;94.20;;;;;;4975406;28;20402;-73
2022/11/23 04:43:40;;;;;;;54.73;31.50;;;8.30;94.20;;;;;;4991264;28;20414;-73
2022/11/23 04:46:05;;;;;;;49.90;30.38;;;8.30;94.20;;;;;;4975053;28;20410;-73
2022/11/23 04:48:31;;;;;;;49.47;30.23;;;8.30;94.20;;;;;;4991266;28;20413;-73
2022/11/23 04:50:57;;;;;;;49.33;31.13;;;8.20;94.20;;;;;;4991495;28;20413;-73
2022/11/23 04:53:22;;;;;;;54.40;31.83;;;8.20;94.20;;;;;;4974943;28;20435;-73
2022/11/23 04:55:48;;;;;;;52.53;30.67;;;8.30;94.20;;;;;;4991181;28;20395;-73
2022/11/23 04:58:13;;;;;;;53.38;31.60;;;8.20;94.20;;;;;;4991348;28;20394;-73
2022/11/23 05:00:39;;;;;;;48.93;31.40;;;8.20;94.30;;;;;;4991137;28;20452;-73
2022/11/23 05:03:05;;;;;;;54.70;32.27;;;8.20;94.30;;;;;;4974976;28;20407;-73
2022/11/23 05:05:30;;;;;;;53.97;31.80;;;8.20;94.30;;;;;;4975462;28;20478;-73
2022/11/23 05:07:57;;;;;;;53.20;31.37;;;8.20;94.30;;;;;;4995220;28;20481;-73
2022/11/23 05:10:23;;;;;;;57.60;33.45;;;8.30;94.30;;;;;;4995027;28;20398;-73
2022/11/23 05:12:48;;;;;;;49.50;31.70;;;8.20;94.30;;;;;;4978745;28;20933;-73
2022/11/23 05:15:14;;;;;;;48.73;31.13;;;8.30;94.30;;;;;;4994862;28;20505;-73
2022/11/23 05:17:39;;;;;;;53.78;32.35;;;8.30;94.30;;;;;;4994990;28;20468;-73
2022/11/23 05:20:06;;;;;;;53.77;33.13;;;8.30;94.20;;;;;;4978573;28;20465;-73
2022/11/23 05:22:32;;;;;;;65.50;35.83;;;8.30;94.20;;;;;;4994976;28;20758;-73
2022/11/23 05:24:58;;;;;;;55.13;33.03;;;8.40;94.20;;;;;;4994712;28;20410;-73
2022/11/23 05:27:24;;;;;;;52.85;32.33;;;8.40;94.10;;;;;;4994650;28;20406;-73
2022/11/23 05:29:49;;;;;;;54.40;33.03;;;8.40;94.10;;;;;;4994608;28;20424;-73
2022/11/23 05:32:15;;;;;;;50.53;32.57;;;8.50;94.10;;;;;;4994811;28;20449;-73
2022/11/23 05:34:40;;;;;;;49.65;31.63;;;8.40;94.00;;;;;;4994569;28;20532;-73
2022/11/23 05:37:06;;;;;;;54.03;32.07;;;8.50;94.00;;;;;;4978339;28;20794;-74
2022/11/23 05:39:31;;;;;;;47.33;32.08;;;8.50;93.90;;;;;;4978290;28;20429;-73
2022/11/23 05:41:57;;;;;;;47.50;31.37;;;8.50;93.90;;;;;;4995292;28;20740;-73
2022/11/23 05:44:22;;;;;;;49.35;33.05;;;8.50;93.80;;;;;;4978221;28;20510;-73
2022/11/23 05:46:48;;;;;;;44.53;30.57;;;8.50;93.80;;;;;;4978345;28;20421;-73
2022/11/23 05:49:13;;;;;;;47.92;31.83;;;8.50;93.80;;;;;;4978143;28;20445;-73
2022/11/23 05:51:39;;;;;;;45.10;31.23;;;8.50;93.70;;;;;;4994515;28;20497;-73
2022/11/23 05:54:04;;;;;;;47.10;30.45;;;8.50;93.80;;;;;;4977979;28;20433;-73
2022/11/23 05:56:30;;;;;;;41.13;30.30;;;8.50;93.80;;;;;;4994193;28;20408;-74
2022/11/23 05:58:55;;;;;;;38.87;28.33;;;8.50;93.80;;;;;;4994110;28;20931;-74
2022/11/23 06:01:21;;;;;;;45.88;31.00;;;8.50;93.80;;;;;;4994203;28;20429;-73
2022/11/23 06:03:51;;;;;;;41.90;29.10;;;8.60;94.00;;;;;;4994009;28;20421;-74
2022/11/23 06:06:17;;;;;;;41.10;29.85;;;8.60;93.70;;;;;;4994144;28;20475;-73
2022/11/23 06:08:42;;;;;;;44.30;29.92;;;8.60;93.60;;;;;;4993939;28;20902;-73
2022/11/23 06:11:08;;;;;;;36.20;27.63;;;8.60;93.60;;;;;;4993887;28;20421;-74
2022/11/23 06:13:34;;;;;;;39.23;27.40;;;8.60;93.50;;;;;;4993793;28;20456;-74
2022/11/23 06:15:59;;;;;;;36.65;26.95;;;8.60;93.50;;;;;;4993828;28;20457;-74
2022/11/23 06:18:25;;;;;;;38.33;27.57;;;8.60;93.50;;;;;;4992876;28;20438;-74
2022/11/23 06:20:50;;;;;;;41.00;27.15;;;8.60;93.50;;;;;;4977526;28;20409;-74
2022/11/23 06:23:16;;;;;;;41.73;27.10;;;8.50;93.50;;;;;;4993920;28;20806;-74
2022/11/23 06:25:41;;;;;;;40.40;26.92;;;8.50;93.50;;;;;;4993606;28;20461;-74
2022/11/23 06:28:07;;;;;;;32.83;23.47;;;8.50;93.40;;;;;;4993538;28;20399;-74
2022/11/23 06:30:32;;;;;;;34.67;25.00;;;8.50;93.30;;;;;;4977509;28;20434;-74
2022/11/23 06:33:02;;;;;;;37.93;25.07;;;8.50;93.30;;;;;;4993363;28;20421;-74
2022/11/23 06:35:27;;;;;;;33.10;23.45;;;8.50;93.20;;;;;;4993783;28;20425;-74
2022/11/23 06:37:53;;;;;;;30.70;22.40;;;8.50;93.20;;;;;;4993674;28;20399;-74
2022/11/23 06:40:19;;;;;;;28.63;21.63;;;8.50;93.10;;;;;;4993726;28;20398;-74
2022/11/23 06:42:44;;;;;;;33.22;23.48;;;8.50;93.10;;;;;;4993654;28;20457;-74
2022/11/23 06:45:10;;;;;;;30.15;22.02;;;8.50;93.10;;;;;;4993611;28;20407;-74
2022/11/23 06:47:36;;;;;;;29.75;21.58;;;8.50;93.10;;;;;;4993202;28;20444;-74
2022/11/23 06:50:02;;;;;;;29.40;20.80;;;8.40;93.00;;;;;;4993231;28;20402;-74
2022/11/23 06:52:27;;;;;;;29.98;20.23;;;8.40;93.00;;;;;;4976923;28;20998;-74
2022/11/23 06:54:53;;;;;;;26.80;19.50;;;8.40;93.10;;;;;;4993177;28;20430;-74
2022/11/23 06:57:18;;;;;;;28.83;20.27;;;8.40;93.00;;;;;;4993040;28;20407;-74
2022/11/23 06:59:44;;;;;;;24.55;19.23;;;8.40;93.00;;;;;;4993365;28;20421;-74
2022/11/23 07:02:10;;;;;;;27.33;19.23;;;8.40;93.00;;;;;;4976903;28;20403;-74
2022/11/23 07:04:36;;;;;;;27.30;19.30;;;8.30;93.00;;;;;;4993037;28;20418;-74
2022/11/23 07:07:01;;;;;;;25.83;18.70;;;8.30;93.00;;;;;;4992906;28;20402;-73
2022/11/23 07:09:27;;;;;;;28.73;19.42;;;8.30;93.00;;;;;;4979510;28;20786;-74
2022/11/23 07:11:53;;;;;;;30.03;20.70;;;8.20;93.10;;;;;;4993142;28;20425;-74
2022/11/23 07:14:18;;;;;;;26.10;18.70;;;8.20;93.10;;;;;;5007160;28;20879;-74
2022/11/23 07:16:44;;;;;;;26.60;18.23;;;8.20;93.10;;;;;;4992728;28;20407;-73
2022/11/23 07:19:09;;;;;;;25.73;18.57;;;8.20;93.20;;;;;;4992727;28;20407;-73
2022/11/23 07:21:35;;;;;;;25.33;16.90;;;8.20;93.10;;;;;;4992986;28;20406;-73
2022/11/23 07:24:01;;;;;;;24.33;17.30;;;8.10;93.20;;;;;;4992623;28;20957;-73
2022/11/23 07:26:26;;;;;;;23.63;15.75;;;8.20;93.20;;;;;;4976723;28;20469;-74
2022/11/23 07:28:52;;;;;;;25.13;16.60;;;8.20;93.20;;;;;;4992563;28;20413;-73
2022/11/23 07:31:17;;;;;;;25.52;16.27;;;8.20;93.20;;;;;;4976708;28;20438;-74
2022/11/23 07:33:47;;;;;;;23.80;15.50;;;8.20;93.20;;;;;;4988380;28;20438;-74
2022/11/23 07:36:13;;;;;;;21.75;15.48;;;8.20;93.20;;;;;;4992399;28;20402;-74
2022/11/23 07:38:39;;;;;;;23.65;15.57;;;8.20;93.20;;;;;;5002822;28;20405;-73
2022/11/23 07:41:04;;;;;;;23.88;14.95;;;8.20;93.20;;;;;;4995659;28;20399;-73
2022/11/23 07:43:30;;;;;;;23.02;14.40;;;8.20;93.20;;;;;;5011856;28;20419;-73
2022/11/23 07:45:56;;;;;;;23.47;15.17;;;8.20;93.10;;;;;;4995783;28;20551;-73
2022/11/23 07:48:22;;;;;;;21.95;14.48;;;8.20;93.10;;;;;;4995542;28;20407;-73
2022/11/23 07:50:52;;;;;;;21.45;14.02;;;8.20;93.10;;;;;;5000304;28;20410;-73
2022/11/23 07:53:17;;;;;;;21.17;14.10;;;8.20;93.10;;;;;;4992095;28;20418;-73
2022/11/23 07:55:43;;;;;;;22.15;13.65;;;8.20;93.10;;;;;;4992122;28;20406;-74
2022/11/23 07:58:09;;;;;;;22.37;12.90;;;8.20;93.10;;;;;;4993974;28;20394;-74
2022/11/23 08:00:35;;;;;;;20.40;12.38;;;8.30;93.10;;;;;;4994555;28;20413;-74
2022/11/23 08:03:01;;;;;;;18.98;11.82;;;8.30;93.00;;;;;;4995261;28;20458;-74
2022/11/23 08:05:26;;;;;;;18.73;12.00;;;8.30;92.90;;;;;;5006098;28;20432;-74
2022/11/23 08:07:58;;;;;;;19.00;11.82;;;8.40;92.90;;;;;;4995095;28;20401;-73
2022/11/23 08:10:23;;;;;;;20.67;11.70;;;8.40;92.90;;;;;;4995086;28;20409;-74
2022/11/23 08:12:49;;;;;;;19.10;11.07;;;8.40;92.80;;;;;;4994173;28;20511;-74
2022/11/23 08:15:15;;;;;;;18.67;11.27;;;8.40;92.80;;;;;;5010586;28;20448;-73
2022/11/23 08:17:41;;;;;;;16.55;10.60;;;8.50;92.80;;;;;;4994868;28;20401;-74
2022/11/23 08:20:06;;;;;;;17.77;9.70;;;8.50;92.70;;;;;;4994954;28;20409;-74
2022/11/23 08:22:32;;;;;;;18.27;10.13;;;8.50;92.50;;;;;;4995620;28;20458;-74
2022/11/23 08:24:57;;;;;;;16.90;9.43;;;8.50;92.50;;;;;;4995090;28;20958;-74
2022/11/23 08:27:23;;;;;;;16.93;8.70;;;8.50;92.50;;;;;;5011079;28;20400;-74
2022/11/23 08:29:49;;;;;;;15.70;9.30;;;8.50;92.40;;;;;;4994772;28;20497;-74
2022/11/23 08:32:14;;;;;;;17.63;9.10;;;8.50;92.40;;;;;;5011218;28;20404;-73
2022/11/23 08:34:42;;;;;;;16.23;8.82;;;8.50;92.40;;;;;;5010958;28;20433;-74
2022/11/23 08:37:08;;;;;;;18.40;8.73;;;8.50;92.40;;;;;;5011450;28;20405;-74
2022/11/23 08:39:34;;;;;;;15.73;9.00;;;8.50;92.40;;;;;;5010979;28;20412;-74
2022/11/23 08:41:59;;;;;;;18.00;9.00;;;8.60;92.40;;;;;;4978107;28;20397;-73
2022/11/23 08:44:25;;;;;;;15.07;8.00;;;8.60;92.50;;;;;;5011009;28;20499;-74
2022/11/23 08:46:50;;;;;;;14.93;8.23;;;8.60;92.20;;;;;;4994529;28;20409;-74
2022/11/23 08:49:16;;;;;;;15.87;8.27;;;8.70;92.30;;;;;;5011423;28;20413;-74
2022/11/23 08:51:42;;;;;;;16.30;8.88;;;8.70;92.20;;;;;;5010813;28;20404;-73
2022/11/23 08:54:07;;;;;;;17.97;7.43;;;8.80;92.50;;;;;;4994461;28;20433;-74
2022/11/23 08:56:33;;;;;;;15.45;7.10;;;8.80;92.00;;;;;;5010749;28;20491;-74
2022/11/23 08:58:58;;;;;;;16.93;7.73;;;8.80;91.90;;;;;;5010814;28;20500;-74
2022/11/23 09:01:24;;;;;;;13.98;7.43;;;8.90;91.90;;;;;;4994718;28;20408;-74
2022/11/23 09:03:49;;;;;;;19.27;8.27;;;8.90;91.70;;;;;;5010990;28;20435;-73
2022/11/23 09:06:15;;;;;;;14.95;7.00;;;9.00;91.80;;;;;;5010801;28;20405;-74
2022/11/23 09:08:41;;;;;;;17.58;7.18;;;9.10;91.70;;;;;;5010909;28;20751;-74
2022/11/23 09:11:09;;;;;;;15.30;7.50;;;9.10;91.50;;;;;;5010757;28;20404;-74
2022/11/23 09:13:36;;;;;;;14.20;6.60;;;9.10;91.50;;;;;;4994292;28;20547;-74
2022/11/23 09:16:02;;;;;;;15.27;6.50;;;9.20;91.40;;;;;;4994239;28;20397;-74
2022/11/23 09:18:29;;;;;;;14.55;6.40;;;9.20;91.50;;;;;;5010720;28;20884;-74
2022/11/23 09:20:55;;;;;;;14.70;6.18;;;9.30;91.30;;;;;;4995072;28;20843;-74
2022/11/23 09:23:21;;;;;;;14.20;6.78;;;9.30;91.30;;;;;;5010856;28;20436;-74
2022/11/23 09:25:48;;;;;;;14.77;6.95;;;9.30;91.40;;;;;;4994564;28;20475;-74
2022/11/23 09:28:15;;;;;;;15.23;7.25;;;9.40;91.20;;;;;;4994476;28;20400;-74
2022/11/23 09:30:41;;;;;;;12.73;6.18;;;9.50;91.20;;;;;;4994423;28;20924;-73
2022/11/23 09:33:07;;;;;;;16.70;6.70;;;9.60;91.10;;;;;;5010381;28;20417;-74
2022/11/23 09:35:33;;;;;;;13.33;6.50;;;9.70;90.80;;;;;;4994161;28;20953;-74
2022/11/23 09:38:00;;;;;;;13.50;5.28;;;9.70;90.70;;;;;;4994308;28;20424;-74
2022/11/23 09:40:40;;;;;;;12.32;5.20;;;9.70;90.20;;;;;;4994089;28;20405;-74
2022/11/23 09:43:32;;;;;;;11.83;4.83;;;9.70;90.10;;;;;;5010385;28;20916;-74
2022/11/23 09:46:06;;;;;;;12.70;5.17;;;9.70;89.80;;;;;;4994042;28;20409;-74
2022/11/23 09:48:51;;;;;;;11.38;4.53;;;9.60;90.00;;;;;;5010413;28;20407;-74
2022/11/23 09:51:22;;;;;;;11.90;4.28;;;9.60;89.80;;;;;;4994069;28;20411;-74
2022/11/23 09:53:52;;;;;;;10.40;4.35;;;9.60;89.20;;;;;;4996083;28;20420;-73
2022/11/23 09:56:21;;;;;;;12.68;4.82;;;9.50;89.10;;;;;;4981315;28;20476;-74
2022/11/23 09:58:53;;;;;;;13.82;4.82;;;9.50;89.40;;;;;;5014013;28;20405;-74
2022/11/23 10:01:19;;;;;;;11.93;4.10;;;9.50;89.70;;;;;;4997382;28;20425;-74
2022/11/23 10:03:45;;;;;;;12.30;4.70;;;9.50;89.40;;;;;;4997442;28;20412;-74
2022/11/23 10:06:19;;;;;;;9.03;4.40;;;9.50;89.70;;;;;;5013809;28;20756;-75
2022/11/23 10:08:59;;;;;;;12.55;4.43;;;9.60;89.10;;;;;;4997922;28;20945;-74
2022/11/23 10:11:38;;;;;;;12.93;4.70;;;9.50;88.30;;;;;;5013848;28;20816;-74
2022/11/23 10:14:38;;;;;;;11.77;4.50;;;9.50;89.00;;;;;;4997130;28;20456;-74
2022/11/23 10:17:41;;;;;;;12.27;4.77;;;9.50;88.80;;;;;;4997103;28;20539;-73
2022/11/23 10:20:09;;;;;;;17.38;5.60;;;9.50;88.60;;;;;;4997879;28;20833;-74
2022/11/23 10:22:57;;;;;;;10.57;4.25;;;9.50;89.50;;;;;;5013364;28;20409;-74
2022/11/23 10:25:24;;;;;;;13.63;4.57;;;9.50;88.60;;;;;;4997024;28;20405;-74
2022/11/23 10:27:55;;;;;;;16.25;5.68;;;9.50;88.60;;;;;;4996881;28;20396;-74
2022/11/23 10:30:21;;;;;;;11.75;4.70;;;9.50;89.20;;;;;;4996996;28;20404;-74
2022/11/23 10:32:57;;;;;;;13.35;5.07;;;9.50;88.90;;;;;;5013045;28;20420;-74
2022/11/23 10:35:29;;;;;;;13.93;4.43;;;9.60;89.10;;;;;;4996039;28;20470;-74
2022/11/23 10:38:12;;;;;;;12.55;4.85;;;9.50;88.60;;;;;;4996415;28;20416;-74
2022/11/23 10:40:42;;;;;;;12.85;4.95;;;9.50;89.20;;;;;;4997275;28;20400;-74
2022/11/23 10:43:17;;;;;;;13.55;4.80;;;9.50;89.60;;;;;;4977522;28;20769;-74
2022/11/23 10:45:42;;;;;;;11.05;4.10;;;9.40;89.50;;;;;;4991530;28;20530;-74
2022/11/23 10:48:08;;;;;;;11.23;3.75;;;9.40;89.00;;;;;;4984024;28;21028;-74
2022/11/23 10:50:43;;;;;;;12.70;3.90;;;9.40;89.20;;;;;;4991981;28;20429;-74
2022/11/23 10:53:21;;;;;;;9.30;3.70;;;9.40;89.90;;;;;;5002737;28;20508;-74
2022/11/23 10:55:57;;;;;;;11.88;3.92;;;9.40;89.60;;;;;;5013999;28;20492;-74
2022/11/23 10:58:26;;;;;;;13.55;4.18;;;9.50;89.90;;;;;;4992212;28;20424;-74
2022/11/23 11:01:00;;;;;;;10.47;3.60;;;9.50;89.60;;;;;;5004895;28;20400;-74
2022/11/23 11:03:29;;;;;;;11.17;3.50;;;9.60;89.40;;;;;;5015533;28;20399;-74
2022/11/23 11:05:56;;;;;;;14.02;4.07;;;9.60;89.60;;;;;;5001723;28;20452;-74
2022/11/23 11:08:27;;;;;;;13.00;3.40;;;9.70;90.10;;;;;;4980022;28;20397;-74
2022/11/23 11:11:19;;;;;;;14.63;3.75;;;9.80;89.30;;;;;;4996394;28;20436;-74
2022/11/23 11:13:47;;;;;;;9.70;3.00;;;9.90;89.70;;;;;;5003031;28;20423;-74
2022/11/23 11:16:36;;;;;;;10.70;2.92;;;10.00;88.70;;;;;;4992889;28;21014;-74
2022/11/23 11:19:31;;;;;;;12.95;3.08;;;10.00;88.20;;;;;;4993823;28;20417;-75
2022/11/23 11:21:58;;;;;;;11.63;3.40;;;10.10;88.60;;;;;;4976927;28;20736;-74
2022/11/23 11:24:32;;;;;;;11.90;2.70;;;10.20;89.00;;;;;;4988656;28;20780;-75
2022/11/23 11:27:02;;;;;;;11.20;2.53;;;10.30;87.90;;;;;;4996111;28;20877;-74
2022/11/23 11:29:42;;;;;;;11.93;3.08;;;10.30;87.50;;;;;;5000843;28;20426;-74
2022/11/23 11:32:22;;;;;;;13.10;2.00;;;10.30;86.50;;;;;;5010947;28;20471;-74
2022/11/23 11:34:51;;;;;;;9.97;2.63;;;10.20;86.30;;;;;;4995668;28;20429;-74
2022/11/23 11:37:35;;;;;;;13.05;1.95;;;10.30;85.80;;;;;;4989456;28;20854;-74
2022/11/23 11:40:16;;;;;;;11.60;2.50;;;10.40;86.20;;;;;;4976161;28;20410;-75
2022/11/23 11:42:46;;;;;;;14.73;2.20;;;10.30;85.00;;;;;;5000062;28;20435;-74
2022/11/23 11:45:40;;;;;;;11.57;2.20;;;10.10;85.60;;;;;;4995464;28;20416;-74
2022/11/23 11:48:13;;;;;;;13.50;2.35;;;10.10;86.10;;;;;;5010726;28;20761;-74
2022/11/23 11:51:05;;;;;;;11.27;2.45;;;10.30;87.40;;;;;;4995362;28;20436;-74
2022/11/23 11:53:40;;;;;;;11.98;2.13;;;10.60;86.80;;;;;;4992713;28;20397;-75
2022/11/23 11:56:31;;;;;;;9.90;2.08;;;10.70;85.00;;;;;;5011825;28;20396;-75
2022/11/23 11:59:03;;;;;;;8.50;2.00;;;10.70;84.40;;;;;;4995348;28;20396;-74
2022/11/23 12:01:57;;;;;;;11.73;2.10;;;10.60;83.50;;;;;;4995469;28;20416;-74
2022/11/23 12:04:34;;;;;;;14.90;2.33;;;10.70;84.30;;;;;;4985314;28;20491;-74
2022/11/23 12:07:26;;;;;;;11.63;1.90;;;10.70;83.60;;;;;;4995145;28;20412;-74
2022/11/23 12:09:59;;;;;;;12.98;1.95;;;10.80;82.60;;;;;;4995060;28;20404;-75
2022/11/23 12:12:24;;;;;;;11.63;1.70;;;11.00;82.30;;;;;;4995082;28;20495;-74
2022/11/23 12:14:50;;;;;;;11.37;1.70;;;11.30;81.60;;;;;;4978584;28;20621;-74
2022/11/23 12:17:46;;;;;;;9.47;1.37;;;11.70;79.40;;;;;;5007597;28;20402;-74
2022/11/23 12:20:19;;;;;;;11.82;1.90;;;11.70;78.40;;;;;;4992002;28;20759;-74
2022/11/23 12:22:55;;;;;;;9.48;1.58;;;11.70;78.60;;;;;;4991726;28;20414;-73
2022/11/23 12:25:35;;;;;;;11.82;2.15;;;11.80;79.00;;;;;;5008049;28;20411;-74
2022/11/23 12:28:12;;;;;;;9.93;1.60;;;11.80;77.80;;;;;;4989549;28;20489;-74
2022/11/23 12:30:56;;;;;;;10.43;1.77;;;12.00;76.60;;;;;;4994939;28;20467;-74
2022/11/23 12:33:38;;;;;;;9.18;1.80;;;12.00;76.90;;;;;;4994377;28;20452;-74
2022/11/23 12:36:43;;;;;;;10.85;1.50;;;11.80;76.70;;;;;;4994543;28;21428;-74
2022/11/23 12:39:23;;;;;;;11.05;1.77;;;11.50;76.90;;;;;;4977777;28;20547;-74
2022/11/23 12:42:12;;;;;;;6.45;0.90;;;11.20;77.60;;;;;;4994663;28;20416;-74
2022/11/23 12:45:05;;;;;;;9.95;1.55;;;11.20;78.00;;;;;;5010920;28;20433;-74
2022/11/23 12:47:31;;;;;;;9.23;1.80;;;11.10;79.70;;;;;;4994576;28;20411;-74
2022/11/23 12:50:09;;;;;;;7.13;1.30;;;10.90;78.50;;;;;;4994678;28;20400;-74